sensor_id;sensor_type;location;lat;lon;timestamp;pressure;altitude;pressure_sealevel;temperature
67599;BMP280;62026;39.230;9.122;2022-08-03T00:00:55;100866.00;;;28.93
67599;BMP280;62026;39.230;9.122;2022-08-03T00:03:21;100861.00;;;28.95
67599;BMP280;62026;39.230;9.122;2022-08-03T00:05:47;100861.69;;;28.92
67599;BMP280;62026;39.230;9.122;2022-08-03T00:08:13;100857.03;;;28.93
67599;BMP280;62026;39.230;9.122;2022-08-03T00:10:39;100863.97;;;28.90
67599;BMP280;62026;39.230;9.122;2022-08-03T00:13:05;100862.16;;;28.94
67599;BMP280;62026;39.230;9.122;2022-08-03T00:15:32;100848.78;;;28.89
67599;BMP280;62026;39.230;9.122;2022-08-03T00:17:58;100861.69;;;28.92
67599;BMP280;62026;39.230;9.122;2022-08-03T00:20:24;100858.63;;;28.94
67599;BMP280;62026;39.230;9.122;2022-08-03T00:22:50;100872.56;;;28.92
67599;BMP280;62026;39.230;9.122;2022-08-03T00:25:17;100861.69;;;28.92
67599;BMP280;62026;39.230;9.122;2022-08-03T00:27:44;100860.13;;;28.91
67599;BMP280;62026;39.230;9.122;2022-08-03T00:30:11;100862.38;;;28.89
67599;BMP280;62026;39.230;9.122;2022-08-03T00:32:37;100862.38;;;28.89
67599;BMP280;62026;39.230;9.122;2022-08-03T00:35:03;100862.38;;;28.89
67599;BMP280;62026;39.230;9.122;2022-08-03T00:37:30;100860.78;;;28.88
67599;BMP280;62026;39.230;9.122;2022-08-03T00:39:56;100868.94;;;28.88
67599;BMP280;62026;39.230;9.122;2022-08-03T00:42:22;100863.63;;;28.92
67599;BMP280;62026;39.230;9.122;2022-08-03T00:44:48;100860.31;;;28.86
67599;BMP280;62026;39.230;9.122;2022-08-03T00:47:14;100859.19;;;28.87
67599;BMP280;62026;39.230;9.122;2022-08-03T00:49:41;100855.22;;;28.85
67599;BMP280;62026;39.230;9.122;2022-08-03T00:52:12;100858.06;;;28.88
67599;BMP280;62026;39.230;9.122;2022-08-03T00:54:39;100852.16;;;28.86
67599;BMP280;62026;39.230;9.122;2022-08-03T00:57:06;100851.38;;;28.86
67599;BMP280;62026;39.230;9.122;2022-08-03T00:59:32;100845.13;;;28.85
67599;BMP280;62026;39.230;9.122;2022-08-03T01:01:59;100850.72;;;28.89
67599;BMP280;62026;39.230;9.122;2022-08-03T01:04:26;100853.28;;;28.85
67599;BMP280;62026;39.230;9.122;2022-08-03T01:10:31;100832.41;;;28.77
67599;BMP280;62026;39.230;9.122;2022-08-03T01:13:39;100841.50;;;28.81
67599;BMP280;62026;39.230;9.122;2022-08-03T01:18:59;100831.72;;;28.80
67599;BMP280;62026;39.230;9.122;2022-08-03T01:21:37;100841.03;;;28.79
67599;BMP280;62026;39.230;9.122;2022-08-03T01:28:21;100835.94;;;28.78
67599;BMP280;62026;39.230;9.122;2022-08-03T01:30:34;100824.94;;;28.74
67599;BMP280;62026;39.230;9.122;2022-08-03T01:33:16;100822.44;;;28.69
67599;BMP280;62026;39.230;9.122;2022-08-03T01:35:59;100826.06;;;28.73
67599;BMP280;62026;39.230;9.122;2022-08-03T01:38:35;100819.41;;;28.71
67599;BMP280;62026;39.230;9.122;2022-08-03T01:41:23;100818.59;;;28.70
67599;BMP280;62026;39.230;9.122;2022-08-03T01:43:52;100814.97;;;28.66
67599;BMP280;62026;39.230;9.122;2022-08-03T01:46:20;100821.19;;;28.67
67599;BMP280;62026;39.230;9.122;2022-08-03T01:48:49;100823.56;;;28.68
67599;BMP280;62026;39.230;9.122;2022-08-03T01:51:18;100827.44;;;28.67
67599;BMP280;62026;39.230;9.122;2022-08-03T01:53:47;100825.38;;;28.64
67599;BMP280;62026;39.230;9.122;2022-08-03T01:56:17;100814.16;;;28.66
67599;BMP280;62026;39.230;9.122;2022-08-03T01:58:47;100819.50;;;28.62
67599;BMP280;62026;39.230;9.122;2022-08-03T02:01:15;100820.19;;;28.59
67599;BMP280;62026;39.230;9.122;2022-08-03T02:03:43;100816.97;;;28.57
67599;BMP280;62026;39.230;9.122;2022-08-03T02:06:12;100803.16;;;28.50
67599;BMP280;62026;39.230;9.122;2022-08-03T02:08:42;100824.31;;;28.57
67599;BMP280;62026;39.230;9.122;2022-08-03T02:11:11;100809.16;;;28.56
67599;BMP280;62026;39.230;9.122;2022-08-03T02:13:38;100814.75;;;28.59
67599;BMP280;62026;39.230;9.122;2022-08-03T02:16:06;100826.25;;;28.56
67599;BMP280;62026;39.230;9.122;2022-08-03T02:18:33;100824.00;;;28.58
67599;BMP280;62026;39.230;9.122;2022-08-03T02:21:01;100816.31;;;28.60
67599;BMP280;62026;39.230;9.122;2022-08-03T02:23:30;100825.63;;;28.59
67599;BMP280;62026;39.230;9.122;2022-08-03T02:26:03;100819.22;;;28.55
67599;BMP280;62026;39.230;9.122;2022-08-03T02:28:40;100804.25;;;28.49
67599;BMP280;62026;39.230;9.122;2022-08-03T02:31:15;100809.97;;;28.56
67599;BMP280;62026;39.230;9.122;2022-08-03T02:33:52;100810.63;;;28.53
67599;BMP280;62026;39.230;9.122;2022-08-03T02:36:24;100807.78;;;28.49
67599;BMP280;62026;39.230;9.122;2022-08-03T02:38:57;100814.47;;;28.52
67599;BMP280;62026;39.230;9.122;2022-08-03T02:41:39;100810.63;;;28.53
67599;BMP280;62026;39.230;9.122;2022-08-03T02:44:09;100808.09;;;28.48
67599;BMP280;62026;39.230;9.122;2022-08-03T02:46:41;100809.69;;;28.49
67599;BMP280;62026;39.230;9.122;2022-08-03T02:49:12;100805.63;;;28.43
67599;BMP280;62026;39.230;9.122;2022-08-03T02:51:41;100810.81;;;28.48
67599;BMP280;62026;39.230;9.122;2022-08-03T02:54:09;100808.78;;;28.45
67599;BMP280;62026;39.230;9.122;2022-08-03T02:56:36;100802.09;;;28.42
67599;BMP280;62026;39.230;9.122;2022-08-03T02:59:05;100804.69;;;28.39
67599;BMP280;62026;39.230;9.122;2022-08-03T03:01:32;100806.28;;;28.40
67599;BMP280;62026;39.230;9.122;2022-08-03T03:03:59;100813.31;;;28.41
67599;BMP280;62026;39.230;9.122;2022-08-03T03:06:27;100814.88;;;28.42
67599;BMP280;62026;39.230;9.122;2022-08-03T03:08:55;100814.88;;;28.42
67599;BMP280;62026;39.230;9.122;2022-08-03T03:11:24;100812.84;;;28.39
67599;BMP280;62026;39.230;9.122;2022-08-03T03:13:51;100803.13;;;28.38
67599;BMP280;62026;39.230;9.122;2022-08-03T03:16:19;100804.25;;;28.37
67599;BMP280;62026;39.230;9.122;2022-08-03T03:18:48;100798.00;;;28.36
67599;BMP280;62026;39.230;9.122;2022-08-03T03:21:18;100807.59;;;28.34
67599;BMP280;62026;39.230;9.122;2022-08-03T03:23:46;100801.97;;;28.39
67599;BMP280;62026;39.230;9.122;2022-08-03T03:26:14;100815.44;;;28.35
67599;BMP280;62026;39.230;9.122;2022-08-03T03:28:41;100807.88;;;28.41
67599;BMP280;62026;39.230;9.122;2022-08-03T03:31:09;100814.31;;;28.36
67599;BMP280;62026;39.230;9.122;2022-08-03T03:33:37;100813.50;;;28.36
67599;BMP280;62026;39.230;9.122;2022-08-03T03:36:05;100810.56;;;28.29
67599;BMP280;62026;39.230;9.122;2022-08-03T03:38:32;100810.06;;;28.27
67599;BMP280;62026;39.230;9.122;2022-08-03T03:40:59;100813.97;;;28.17
67599;BMP280;62026;39.230;9.122;2022-08-03T03:43:26;100822.75;;;28.23
67599;BMP280;62026;39.230;9.122;2022-08-03T03:45:56;100814.53;;;28.11
67599;BMP280;62026;39.230;9.122;2022-08-03T03:48:24;100832.00;;;28.22
67599;BMP280;62026;39.230;9.122;2022-08-03T03:50:51;100825.63;;;28.18
67599;BMP280;62026;39.230;9.122;2022-08-03T03:53:18;100827.91;;;28.16
67599;BMP280;62026;39.230;9.122;2022-08-03T03:55:45;100824.06;;;28.17
67599;BMP280;62026;39.230;9.122;2022-08-03T03:58:11;100834.81;;;28.13
67599;BMP280;62026;39.230;9.122;2022-08-03T04:00:37;100823.00;;;28.09
67599;BMP280;62026;39.230;9.122;2022-08-03T04:03:03;100827.91;;;28.16
67599;BMP280;62026;39.230;9.122;2022-08-03T04:05:30;100828.22;;;28.14
67599;BMP280;62026;39.230;9.122;2022-08-03T04:08:18;100836.50;;;28.18
67599;BMP280;62026;39.230;9.122;2022-08-03T04:11:35;100832.66;;;28.19
67599;BMP280;62026;39.230;9.122;2022-08-03T04:14:09;100843.06;;;28.17
67599;BMP280;62026;39.230;9.122;2022-08-03T04:16:40;100840.09;;;28.09
67599;BMP280;62026;39.230;9.122;2022-08-03T04:19:14;100840.09;;;28.09
67599;BMP280;62026;39.230;9.122;2022-08-03T04:21:47;100847.00;;;28.07
67599;BMP280;62026;39.230;9.122;2022-08-03T04:24:15;100848.22;;;28.09
67599;BMP280;62026;39.230;9.122;2022-08-03T04:26:44;100844.28;;;28.07
67599;BMP280;62026;39.230;9.122;2022-08-03T04:29:13;100852.25;;;28.03
67599;BMP280;62026;39.230;9.122;2022-08-03T04:31:42;100845.78;;;28.17
67599;BMP280;62026;39.230;9.122;2022-08-03T04:34:08;100848.81;;;28.15
67599;BMP280;62026;39.230;9.122;2022-08-03T04:36:46;100853.94;;;28.17
67599;BMP280;62026;39.230;9.122;2022-08-03T04:39:22;100838.59;;;28.12
67599;BMP280;62026;39.230;9.122;2022-08-03T04:41:55;100858.69;;;28.20
67599;BMP280;62026;39.230;9.122;2022-08-03T04:44:24;100854.53;;;28.22
67599;BMP280;62026;39.230;9.122;2022-08-03T04:46:52;100848.94;;;28.19
67599;BMP280;62026;39.230;9.122;2022-08-03T04:49:20;100841.81;;;28.14
67599;BMP280;62026;39.230;9.122;2022-08-03T04:51:48;100856.09;;;28.23
67599;BMP280;62026;39.230;9.122;2022-08-03T04:54:15;100865.53;;;28.26
67599;BMP280;62026;39.230;9.122;2022-08-03T04:56:43;100861.53;;;28.23
67599;BMP280;62026;39.230;9.122;2022-08-03T04:59:10;100864.59;;;28.22
67599;BMP280;62026;39.230;9.122;2022-08-03T05:01:36;100865.72;;;28.21
67599;BMP280;62026;39.230;9.122;2022-08-03T05:04:04;100862.84;;;28.17
67599;BMP280;62026;39.230;9.122;2022-08-03T05:06:30;100872.41;;;28.23
67599;BMP280;62026;39.230;9.122;2022-08-03T05:08:56;100876.72;;;28.24
67599;BMP280;62026;39.230;9.122;2022-08-03T05:11:22;100878.63;;;28.24
67599;BMP280;62026;39.230;9.122;2022-08-03T05:13:49;100877.06;;;28.23
67599;BMP280;62026;39.230;9.122;2022-08-03T05:16:15;100876.38;;;28.26
67599;BMP280;62026;39.230;9.122;2022-08-03T05:18:42;100884.19;;;28.27
67599;BMP280;62026;39.230;9.122;2022-08-03T05:21:09;100888.19;;;28.30
67599;BMP280;62026;39.230;9.122;2022-08-03T05:23:35;100888.78;;;28.35
67599;BMP280;62026;39.230;9.122;2022-08-03T05:26:03;100889.91;;;28.34
67599;BMP280;62026;39.230;9.122;2022-08-03T05:28:29;100887.31;;;28.38
67599;BMP280;62026;39.230;9.122;2022-08-03T05:30:56;100886.84;;;28.36
67599;BMP280;62026;39.230;9.122;2022-08-03T05:33:22;100878.09;;;28.30
67599;BMP280;62026;39.230;9.122;2022-08-03T05:35:48;100886.97;;;28.39
67599;BMP280;62026;39.230;9.122;2022-08-03T05:38:14;100886.97;;;28.39
67599;BMP280;62026;39.230;9.122;2022-08-03T05:40:40;100886.25;;;28.51
67599;BMP280;62026;39.230;9.122;2022-08-03T05:43:06;100889.88;;;28.55
67599;BMP280;62026;39.230;9.122;2022-08-03T05:45:32;100893.41;;;28.56
67599;BMP280;62026;39.230;9.122;2022-08-03T05:47:59;100895.31;;;28.55
67599;BMP280;62026;39.230;9.122;2022-08-03T05:50:25;100895.03;;;28.69
67599;BMP280;62026;39.230;9.122;2022-08-03T05:52:55;100892.19;;;28.65
67599;BMP280;62026;39.230;9.122;2022-08-03T05:55:24;100895.88;;;28.81
67599;BMP280;62026;39.230;9.122;2022-08-03T05:57:51;100900.44;;;28.89
67599;BMP280;62026;39.230;9.122;2022-08-03T06:00:17;100899.66;;;28.89
67599;BMP280;62026;39.230;9.122;2022-08-03T06:02:44;100903.06;;;28.98
67599;BMP280;62026;39.230;9.122;2022-08-03T06:05:10;100898.03;;;28.88
67599;BMP280;62026;39.230;9.122;2022-08-03T06:07:36;100904.75;;;29.03
67599;BMP280;62026;39.230;9.122;2022-08-03T06:10:04;100908.22;;;29.12
67599;BMP280;62026;39.230;9.122;2022-08-03T06:12:30;100906.50;;;29.19
67599;BMP280;62026;39.230;9.122;2022-08-03T06:14:57;100904.00;;;29.26
67599;BMP280;62026;39.230;9.122;2022-08-03T06:17:23;100906.72;;;29.26
67599;BMP280;62026;39.230;9.122;2022-08-03T06:19:52;100906.50;;;29.31
67599;BMP280;62026;39.230;9.122;2022-08-03T06:22:18;100910.72;;;29.29
67599;BMP280;62026;39.230;9.122;2022-08-03T06:24:45;100914.44;;;29.36
67599;BMP280;62026;39.230;9.122;2022-08-03T06:27:11;100912.97;;;29.15
67599;BMP280;62026;39.230;9.122;2022-08-03T06:29:37;100923.84;;;29.15
67599;BMP280;62026;39.230;9.122;2022-08-03T06:32:03;100921.56;;;29.17
67599;BMP280;62026;39.230;9.122;2022-08-03T06:34:30;100922.72;;;29.28
67599;BMP280;62026;39.230;9.122;2022-08-03T06:36:56;100925.91;;;29.30
67599;BMP280;62026;39.230;9.122;2022-08-03T06:39:22;100914.88;;;29.26
67599;BMP280;62026;39.230;9.122;2022-08-03T06:41:48;100922.50;;;29.33
67599;BMP280;62026;39.230;9.122;2022-08-03T06:44:14;100923.22;;;29.42
67599;BMP280;62026;39.230;9.122;2022-08-03T06:46:40;100929.78;;;29.53
67599;BMP280;62026;39.230;9.122;2022-08-03T06:49:08;100918.44;;;29.51
67599;BMP280;62026;39.230;9.122;2022-08-03T06:51:34;100928.19;;;29.64
67599;BMP280;62026;39.230;9.122;2022-08-03T06:54:00;100924.25;;;29.74
67599;BMP280;62026;39.230;9.122;2022-08-03T06:56:26;100924.25;;;29.74
67599;BMP280;62026;39.230;9.122;2022-08-03T06:58:52;100933.78;;;29.80
67599;BMP280;62026;39.230;9.122;2022-08-03T07:01:18;100938.19;;;29.97
67599;BMP280;62026;39.230;9.122;2022-08-03T07:03:44;100930.53;;;30.02
67599;BMP280;62026;39.230;9.122;2022-08-03T07:06:10;100941.34;;;30.11
67599;BMP280;62026;39.230;9.122;2022-08-03T07:08:36;100939.00;;;30.25
67599;BMP280;62026;39.230;9.122;2022-08-03T07:11:03;100935.75;;;30.19
67599;BMP280;62026;39.230;9.122;2022-08-03T07:13:29;100944.63;;;30.44
67599;BMP280;62026;39.230;9.122;2022-08-03T07:15:55;100939.81;;;30.53
67599;BMP280;62026;39.230;9.122;2022-08-03T07:18:21;100934.50;;;30.57
67599;BMP280;62026;39.230;9.122;2022-08-03T07:20:48;100940.97;;;30.52
67599;BMP280;62026;39.230;9.122;2022-08-03T07:23:14;100948.66;;;30.62
67599;BMP280;62026;39.230;9.122;2022-08-03T07:25:40;100944.72;;;30.76
67599;BMP280;62026;39.230;9.122;2022-08-03T07:28:06;100941.41;;;30.54
67599;BMP280;62026;39.230;9.122;2022-08-03T07:30:33;100945.84;;;30.74
67599;BMP280;62026;39.230;9.122;2022-08-03T07:33:00;100942.97;;;30.83
67599;BMP280;62026;39.230;9.122;2022-08-03T07:35:26;100957.44;;;30.99
67599;BMP280;62026;39.230;9.122;2022-08-03T07:37:53;100947.75;;;31.02
67599;BMP280;62026;39.230;9.122;2022-08-03T07:40:19;100956.94;;;31.09
67599;BMP280;62026;39.230;9.122;2022-08-03T07:42:45;100945.69;;;31.27
67599;BMP280;62026;39.230;9.122;2022-08-03T07:45:11;100954.22;;;31.25
67599;BMP280;62026;39.230;9.122;2022-08-03T07:47:37;100952.69;;;31.43
67599;BMP280;62026;39.230;9.122;2022-08-03T07:50:06;100961.25;;;31.57
67599;BMP280;62026;39.230;9.122;2022-08-03T07:52:32;100954.53;;;31.71
67599;BMP280;62026;39.230;9.122;2022-08-03T07:55:15;100958.97;;;31.28
67599;BMP280;62026;39.230;9.122;2022-08-03T07:57:42;100953.41;;;31.09
67599;BMP280;62026;39.230;9.122;2022-08-03T08:00:15;100952.25;;;30.94
67599;BMP280;62026;39.230;9.122;2022-08-03T08:02:43;100943.38;;;31.44
67599;BMP280;62026;39.230;9.122;2022-08-03T08:05:10;100947.44;;;31.35
67599;BMP280;62026;39.230;9.122;2022-08-03T08:07:38;100949.28;;;31.15
67599;BMP280;62026;39.230;9.122;2022-08-03T08:10:08;100949.72;;;31.17
67599;BMP280;62026;39.230;9.122;2022-08-03T08:12:36;100951.47;;;31.41
67599;BMP280;62026;39.230;9.122;2022-08-03T08:15:03;100940.13;;;31.23
67599;BMP280;62026;39.230;9.122;2022-08-03T08:17:30;100943.72;;;31.11
67599;BMP280;62026;39.230;9.122;2022-08-03T08:19:56;100945.88;;;31.18
67599;BMP280;62026;39.230;9.122;2022-08-03T08:22:22;100947.41;;;31.03
67599;BMP280;62026;39.230;9.122;2022-08-03T08:24:48;100955.25;;;31.05
67599;BMP280;62026;39.230;9.122;2022-08-03T08:27:15;100960.34;;;31.06
67599;BMP280;62026;39.230;9.122;2022-08-03T08:29:41;100962.47;;;31.13
67599;BMP280;62026;39.230;9.122;2022-08-03T08:32:07;100973.38;;;31.13
67599;BMP280;62026;39.230;9.122;2022-08-03T08:34:33;100959.19;;;31.07
67599;BMP280;62026;39.230;9.122;2022-08-03T08:36:59;100970.25;;;31.42
67599;BMP280;62026;39.230;9.122;2022-08-03T08:39:26;100973.38;;;31.13
67599;BMP280;62026;39.230;9.122;2022-08-03T08:41:52;100954.84;;;31.34
67599;BMP280;62026;39.230;9.122;2022-08-03T08:44:18;100968.75;;;31.29
67599;BMP280;62026;39.230;9.122;2022-08-03T08:46:45;100962.13;;;31.30
67599;BMP280;62026;39.230;9.122;2022-08-03T08:49:17;100967.41;;;31.23
67599;BMP280;62026;39.230;9.122;2022-08-03T08:51:51;100954.34;;;31.16
67599;BMP280;62026;39.230;9.122;2022-08-03T08:54:20;100967.41;;;31.23
67599;BMP280;62026;39.230;9.122;2022-08-03T08:56:50;100977.66;;;31.26
67599;BMP280;62026;39.230;9.122;2022-08-03T08:59:17;100963.00;;;31.03
67599;BMP280;62026;39.230;9.122;2022-08-03T09:01:45;100987.41;;;31.27
67599;BMP280;62026;39.230;9.122;2022-08-03T09:04:12;100981.75;;;31.20
67599;BMP280;62026;39.230;9.122;2022-08-03T09:06:38;100986.00;;;31.17
67599;BMP280;62026;39.230;9.122;2022-08-03T09:09:05;100993.63;;;31.12
67599;BMP280;62026;39.230;9.122;2022-08-03T09:11:32;100983.22;;;31.02
67599;BMP280;62026;39.230;9.122;2022-08-03T09:13:58;100977.69;;;31.14
67599;BMP280;62026;39.230;9.122;2022-08-03T09:16:25;100981.69;;;31.32
67599;BMP280;62026;39.230;9.122;2022-08-03T09:18:54;100982.03;;;31.15
67599;BMP280;62026;39.230;9.122;2022-08-03T09:21:26;100986.44;;;31.19
67599;BMP280;62026;39.230;9.122;2022-08-03T09:23:59;100983.91;;;31.42
67599;BMP280;62026;39.230;9.122;2022-08-03T09:26:29;100978.31;;;31.39
67599;BMP280;62026;39.230;9.122;2022-08-03T09:29:04;100986.63;;;31.42
67599;BMP280;62026;39.230;9.122;2022-08-03T09:31:44;100988.28;;;31.47
67599;BMP280;62026;39.230;9.122;2022-08-03T09:34:16;100987.13;;;31.32
67599;BMP280;62026;39.230;9.122;2022-08-03T09:36:46;100974.97;;;31.30
67599;BMP280;62026;39.230;9.122;2022-08-03T09:39:16;100986.72;;;31.46
67599;BMP280;62026;39.230;9.122;2022-08-03T09:44:37;100990.91;;;31.28
67599;BMP280;62026;39.230;9.122;2022-08-03T09:47:04;100981.84;;;31.24
67599;BMP280;62026;39.230;9.122;2022-08-03T09:49:31;100987.84;;;31.29
67599;BMP280;62026;39.230;9.122;2022-08-03T09:52:11;100965.56;;;31.11
67599;BMP280;62026;39.230;9.122;2022-08-03T09:54:37;100986.34;;;31.32
67599;BMP280;62026;39.230;9.122;2022-08-03T09:57:04;100973.03;;;31.30
67599;BMP280;62026;39.230;9.122;2022-08-03T09:59:32;100987.06;;;31.29
67599;BMP280;62026;39.230;9.122;2022-08-03T10:01:59;100987.56;;;31.18
67599;BMP280;62026;39.230;9.122;2022-08-03T10:04:26;100970.84;;;31.20
67599;BMP280;62026;39.230;9.122;2022-08-03T10:07:09;100965.38;;;31.36
67599;BMP280;62026;39.230;9.122;2022-08-03T10:09:36;100966.09;;;31.64
67599;BMP280;62026;39.230;9.122;2022-08-03T10:12:12;100952.69;;;31.59
67599;BMP280;62026;39.230;9.122;2022-08-03T10:14:40;100963.84;;;31.70
67599;BMP280;62026;39.230;9.122;2022-08-03T10:17:08;100965.38;;;31.67
67599;BMP280;62026;39.230;9.122;2022-08-03T10:19:34;100961.66;;;31.75
67599;BMP280;62026;39.230;9.122;2022-08-03T10:22:15;100952.94;;;31.70
67599;BMP280;62026;39.230;9.122;2022-08-03T10:25:08;100962.81;;;32.09
67599;BMP280;62026;39.230;9.122;2022-08-03T10:27:40;100945.16;;;32.06
67599;BMP280;62026;39.230;9.122;2022-08-03T10:30:10;100957.16;;;31.83
67599;BMP280;62026;39.230;9.122;2022-08-03T10:32:43;100964.66;;;32.05
67599;BMP280;62026;39.230;9.122;2022-08-03T10:35:16;100949.94;;;31.75
67599;BMP280;62026;39.230;9.122;2022-08-03T10:38:02;100959.59;;;31.88
67599;BMP280;62026;39.230;9.122;2022-08-03T10:40:31;100951.97;;;31.62
67599;BMP280;62026;39.230;9.122;2022-08-03T10:43:17;100950.31;;;31.57
67599;BMP280;62026;39.230;9.122;2022-08-03T10:45:45;100949.38;;;31.50
67599;BMP280;62026;39.230;9.122;2022-08-03T10:48:12;100937.00;;;31.72
67599;BMP280;62026;39.230;9.122;2022-08-03T10:50:39;100933.66;;;31.78
67599;BMP280;62026;39.230;9.122;2022-08-03T10:53:08;100935.44;;;31.90
67599;BMP280;62026;39.230;9.122;2022-08-03T10:55:45;100937.75;;;31.88
67599;BMP280;62026;39.230;9.122;2022-08-03T11:01:04;100924.59;;;31.93
67599;BMP280;62026;39.230;9.122;2022-08-03T11:03:31;100935.19;;;32.33
67599;BMP280;62026;39.230;9.122;2022-08-03T11:06:19;100934.88;;;32.00
67599;BMP280;62026;39.230;9.122;2022-08-03T11:09:12;100936.59;;;31.89
67599;BMP280;62026;39.230;9.122;2022-08-03T11:11:37;100950.03;;;31.62
67599;BMP280;62026;39.230;9.122;2022-08-03T11:14:19;100927.22;;;31.71
67599;BMP280;62026;39.230;9.122;2022-08-03T11:17:06;100935.88;;;31.92
67599;BMP280;62026;39.230;9.122;2022-08-03T11:20:02;100933.16;;;31.76
67599;BMP280;62026;39.230;9.122;2022-08-03T11:22:49;100926.94;;;31.76
67599;BMP280;62026;39.230;9.122;2022-08-03T11:25:19;100929.63;;;31.91
67599;BMP280;62026;39.230;9.122;2022-08-03T11:27:45;100927.28;;;31.74
67599;BMP280;62026;39.230;9.122;2022-08-03T11:35:26;100937.13;;;31.59
67599;BMP280;62026;39.230;9.122;2022-08-03T11:40:48;100924.34;;;31.63
67599;BMP280;62026;39.230;9.122;2022-08-03T11:48:36;100933.53;;;31.75
67599;BMP280;62026;39.230;9.122;2022-08-03T11:51:18;100929.28;;;31.42
67599;BMP280;62026;39.230;9.122;2022-08-03T11:53:45;100924.78;;;31.50
67599;BMP280;62026;39.230;9.122;2022-08-03T11:56:14;100931.47;;;31.52
67599;BMP280;62026;39.230;9.122;2022-08-03T11:58:52;100927.25;;;31.39
67599;BMP280;62026;39.230;9.122;2022-08-03T12:01:20;100913.59;;;31.39
67599;BMP280;62026;39.230;9.122;2022-08-03T12:03:47;100912.28;;;31.49
67599;BMP280;62026;39.230;9.122;2022-08-03T12:06:16;100928.91;;;31.44
67599;BMP280;62026;39.230;9.122;2022-08-03T12:08:45;100925.16;;;31.48
67599;BMP280;62026;39.230;9.122;2022-08-03T12:11:15;100924.09;;;31.37
67599;BMP280;62026;39.230;9.122;2022-08-03T12:13:46;100914.06;;;31.41
67599;BMP280;62026;39.230;9.122;2022-08-03T12:16:23;100913.44;;;31.16
67599;BMP280;62026;39.230;9.122;2022-08-03T12:19:04;100922.16;;;31.22
67599;BMP280;62026;39.230;9.122;2022-08-03T12:21:31;100911.22;;;31.22
67599;BMP280;62026;39.230;9.122;2022-08-03T12:24:01;100908.09;;;31.20
67599;BMP280;62026;39.230;9.122;2022-08-03T12:26:42;100917.13;;;31.08
67599;BMP280;62026;39.230;9.122;2022-08-03T12:29:17;100924.72;;;31.15
67599;BMP280;62026;39.230;9.122;2022-08-03T12:31:44;100918.75;;;31.09
67599;BMP280;62026;39.230;9.122;2022-08-03T12:34:10;100911.00;;;31.11
67599;BMP280;62026;39.230;9.122;2022-08-03T12:36:37;100914.34;;;31.21
67599;BMP280;62026;39.230;9.122;2022-08-03T12:39:08;100908.63;;;31.26
67599;BMP280;62026;39.230;9.122;2022-08-03T12:41:39;100895.06;;;31.29
67599;BMP280;62026;39.230;9.122;2022-08-03T12:44:08;100897.75;;;31.45
67599;BMP280;62026;39.230;9.122;2022-08-03T12:46:38;100908.22;;;31.58
67599;BMP280;62026;39.230;9.122;2022-08-03T12:49:14;100891.88;;;31.43
67599;BMP280;62026;39.230;9.122;2022-08-03T12:54:22;100903.19;;;31.60
67599;BMP280;62026;39.230;9.122;2022-08-03T12:57:09;100893.44;;;31.59
67599;BMP280;62026;39.230;9.122;2022-08-03T12:59:41;100893.50;;;31.47
67599;BMP280;62026;39.230;9.122;2022-08-03T13:02:16;100889.38;;;31.38
67599;BMP280;62026;39.230;9.122;2022-08-03T13:04:44;100886.97;;;31.52
67599;BMP280;62026;39.230;9.122;2022-08-03T13:07:13;100891.84;;;31.58
67599;BMP280;62026;39.230;9.122;2022-08-03T13:09:50;100884.97;;;31.64
67599;BMP280;62026;39.230;9.122;2022-08-03T13:12:27;100877.28;;;31.54
67599;BMP280;62026;39.230;9.122;2022-08-03T13:14:59;100885.19;;;31.40
67599;BMP280;62026;39.230;9.122;2022-08-03T13:17:27;100881.97;;;31.38
67599;BMP280;62026;39.230;9.122;2022-08-03T13:19:53;100893.88;;;31.30
67599;BMP280;62026;39.230;9.122;2022-08-03T13:22:27;100867.31;;;31.27
67599;BMP280;62026;39.230;9.122;2022-08-03T13:24:58;100887.03;;;31.36
67599;BMP280;62026;39.230;9.122;2022-08-03T13:27:27;100877.44;;;31.42
67599;BMP280;62026;39.230;9.122;2022-08-03T13:29:54;100870.78;;;31.43
67599;BMP280;62026;39.230;9.122;2022-08-03T13:32:22;100865.19;;;31.36
67599;BMP280;62026;39.230;9.122;2022-08-03T13:34:48;100896.88;;;31.41
67599;BMP280;62026;39.230;9.122;2022-08-03T13:37:14;100878.13;;;31.39
67599;BMP280;62026;39.230;9.122;2022-08-03T13:39:41;100856.38;;;31.27
67599;BMP280;62026;39.230;9.122;2022-08-03T13:42:07;100879.78;;;31.44
67599;BMP280;62026;39.230;9.122;2022-08-03T13:44:34;100871.78;;;31.35
67599;BMP280;62026;39.230;9.122;2022-08-03T13:47:03;100878.13;;;31.39
67599;BMP280;62026;39.230;9.122;2022-08-03T13:49:30;100864.91;;;31.41
67599;BMP280;62026;39.230;9.122;2022-08-03T13:51:56;100873.13;;;31.60
67599;BMP280;62026;39.230;9.122;2022-08-03T13:54:23;100863.94;;;31.49
67599;BMP280;62026;39.230;9.122;2022-08-03T13:56:50;100855.72;;;31.49
67599;BMP280;62026;39.230;9.122;2022-08-03T13:59:25;100863.59;;;31.51
67599;BMP280;62026;39.230;9.122;2022-08-03T14:01:52;100857.94;;;31.44
67599;BMP280;62026;39.230;9.122;2022-08-03T14:04:19;100866.31;;;31.35
67599;BMP280;62026;39.230;9.122;2022-08-03T14:06:45;100851.53;;;31.36
67599;BMP280;62026;39.230;9.122;2022-08-03T14:09:13;100863.06;;;31.45
67599;BMP280;62026;39.230;9.122;2022-08-03T14:11:41;100856.38;;;31.43
67599;BMP280;62026;39.230;9.122;2022-08-03T14:14:08;100869.50;;;31.37
67599;BMP280;62026;39.230;9.122;2022-08-03T14:16:35;100856.91;;;31.48
67599;BMP280;62026;39.230;9.122;2022-08-03T14:19:03;100861.84;;;31.43
67599;BMP280;62026;39.230;9.122;2022-08-03T14:21:29;100857.28;;;31.66
67599;BMP280;62026;39.230;9.122;2022-08-03T14:23:56;100853.38;;;31.48
67599;BMP280;62026;39.230;9.122;2022-08-03T14:26:22;100857.00;;;31.36
67599;BMP280;62026;39.230;9.122;2022-08-03T14:28:49;100850.41;;;31.37
67599;BMP280;62026;39.230;9.122;2022-08-03T14:31:15;100860.16;;;31.38
67599;BMP280;62026;39.230;9.122;2022-08-03T14:33:41;100864.66;;;31.31
67599;BMP280;62026;39.230;9.122;2022-08-03T14:36:08;100860.06;;;31.50
67599;BMP280;62026;39.230;9.122;2022-08-03T14:38:34;100858.97;;;31.20
67599;BMP280;62026;39.230;9.122;2022-08-03T14:41:00;100853.84;;;31.34